createdAt,value
2018-03-18T00:01:16.075Z,10.63
2018-03-18T00:03:50.239Z,10.45
2018-03-18T00:06:22.609Z,10.43
2018-03-18T00:08:54.091Z,11.73
2018-03-18T00:11:26.651Z,9.73
2018-03-18T00:13:58.304Z,10.03
2018-03-18T00:16:30.142Z,10.13
2018-03-18T00:19:03.970Z,10.77
2018-03-18T00:21:34.782Z,10.63
2018-03-18T00:24:05.834Z,11.87
2018-03-18T00:26:36.830Z,10.97
2018-03-18T00:29:08.219Z,11.77
2018-03-18T00:31:39.631Z,11.23
2018-03-18T00:34:14.505Z,9.73
2018-03-18T00:36:46.365Z,13.57
2018-03-18T00:39:19.094Z,13.27
2018-03-18T00:41:52.201Z,12.90
2018-03-18T00:44:22.501Z,13.70
2018-03-18T00:46:57.806Z,13.53
2018-03-18T00:49:28.907Z,13.77
2018-03-18T00:52:03.620Z,13.87
2018-03-18T00:54:35.744Z,14.23
2018-03-18T00:57:06.804Z,12.20
2018-03-18T00:59:36.825Z,12.27
2018-03-18T01:02:09.085Z,13.73
2018-03-18T01:04:41.218Z,14.83
2018-03-18T01:07:12.974Z,12.07
2018-03-18T01:09:44.040Z,12.53
2018-03-18T01:12:16.315Z,15.33
2018-03-18T01:14:48.106Z,11.68
2018-03-18T01:17:18.391Z,12.27
2018-03-18T01:19:49.363Z,15.57
2018-03-18T01:22:20.221Z,14.67
2018-03-18T01:24:55.954Z,12.13
2018-03-18T01:27:28.414Z,12.63
2018-03-18T01:30:00.476Z,11.80
2018-03-18T01:32:32.090Z,10.83
2018-03-18T01:35:03.988Z,13.30
2018-03-18T01:37:35.970Z,12.23
2018-03-18T01:40:10.838Z,13.30
2018-03-18T01:42:43.341Z,16.23
2018-03-18T01:45:16.261Z,15.63
2018-03-18T01:47:50.164Z,17.13
2018-03-18T01:50:26.152Z,13.57
2018-03-18T01:53:14.333Z,16.00
2018-03-18T01:55:44.923Z,17.50
2018-03-18T01:58:17.364Z,15.60
2018-03-18T02:00:49.027Z,17.05
2018-03-18T02:03:20.804Z,16.20
2018-03-18T02:05:53.024Z,12.73
2018-03-18T02:08:26.876Z,14.73
2018-03-18T02:11:01.180Z,13.25
2018-03-18T02:13:32.176Z,14.90
2018-03-18T02:16:05.135Z,13.03
2018-03-18T02:18:37.702Z,13.57
2018-03-18T02:21:09.331Z,13.87
2018-03-18T02:23:40.422Z,14.52
2018-03-18T02:26:13.844Z,12.60
2018-03-18T02:28:45.565Z,13.47
2018-03-18T02:31:18.354Z,14.60
2018-03-18T02:33:48.585Z,14.50
2018-03-18T02:36:18.969Z,14.60
2018-03-18T02:38:54.888Z,13.77
2018-03-18T02:41:26.433Z,15.63
2018-03-18T02:43:56.757Z,12.57
2018-03-18T02:46:29.361Z,16.23
2018-03-18T02:49:02.632Z,14.23
2018-03-18T02:51:32.944Z,14.82
2018-03-18T02:54:05.418Z,13.73
2018-03-18T02:56:38.697Z,13.93
2018-03-18T02:59:11.584Z,14.07
2018-03-18T03:01:42.099Z,13.27
2018-03-18T03:04:12.626Z,13.60
2018-03-18T03:06:44.847Z,13.63
2018-03-18T03:09:15.155Z,14.43
2018-03-18T03:11:46.285Z,14.87
2018-03-18T03:14:16.786Z,14.97
2018-03-18T03:16:47.018Z,13.07
2018-03-18T03:19:18.164Z,12.83
2018-03-18T03:21:51.038Z,14.23
2018-03-18T03:24:23.217Z,13.88
2018-03-18T03:26:53.869Z,12.90
2018-03-18T03:29:24.020Z,15.30
2018-03-18T03:31:54.483Z,13.63
2018-03-18T03:34:25.921Z,13.30
2018-03-18T03:36:56.328Z,13.93
2018-03-18T03:39:27.839Z,13.67
2018-03-18T03:42:01.165Z,12.17
2018-03-18T03:44:31.465Z,13.83
2018-03-18T03:47:01.660Z,12.97
2018-03-18T03:49:32.144Z,12.90
2018-03-18T03:52:05.397Z,13.77
2018-03-18T03:54:41.500Z,13.33
2018-03-18T03:57:13.795Z,17.30
2018-03-18T03:59:46.430Z,15.23
2018-03-18T04:02:16.853Z,14.80
2018-03-18T04:04:50.065Z,15.82
2018-03-18T04:07:21.273Z,16.70
2018-03-18T04:09:53.505Z,16.90
2018-03-18T04:12:24.641Z,17.23
2018-03-18T04:17:59.724Z,17.10
2018-03-18T04:20:37.227Z,19.13
2018-03-18T04:23:08.705Z,18.87
2018-03-18T04:25:40.177Z,19.33
2018-03-18T04:28:11.947Z,20.42
2018-03-18T04:30:43.138Z,18.47
2018-03-18T04:33:19.879Z,24.50
2018-03-18T04:35:51.441Z,21.98
2018-03-18T04:38:21.899Z,20.13
2018-03-18T04:40:53.572Z,19.97
2018-03-18T04:43:25.082Z,21.13
2018-03-18T04:45:57.398Z,21.22
2018-03-18T04:48:27.638Z,23.87
2018-03-18T04:50:57.684Z,19.67
2018-03-18T04:53:29.691Z,22.50
2018-03-18T04:55:59.598Z,19.60
2018-03-18T04:58:30.364Z,23.03
2018-03-18T05:01:04.048Z,22.73
2018-03-18T05:03:34.212Z,22.93
2018-03-18T05:06:10.135Z,19.43
2018-03-18T05:08:45.857Z,20.80
2018-03-18T05:11:15.850Z,18.70
2018-03-18T05:13:52.690Z,19.73
2018-03-18T05:16:24.173Z,19.60
2018-03-18T05:18:59.563Z,21.17
2018-03-18T05:21:29.303Z,20.47
2018-03-18T05:24:00.502Z,21.60
2018-03-18T05:26:34.815Z,22.33
2018-03-18T05:29:13.016Z,22.05
2018-03-18T05:31:43.214Z,21.42
2018-03-18T05:34:13.987Z,19.95
2018-03-18T05:36:45.782Z,20.00
2018-03-18T05:39:16.571Z,21.50
2018-03-18T05:41:46.222Z,20.43
2018-03-18T05:44:16.772Z,21.53
2018-03-18T05:46:46.637Z,20.07
2018-03-18T05:49:18.023Z,21.17
2018-03-18T05:51:48.685Z,17.83
2018-03-18T05:54:20.189Z,21.50
2018-03-18T05:56:50.947Z,20.73
2018-03-18T05:59:21.809Z,20.35
2018-03-18T06:01:58.141Z,19.67
2018-03-18T06:04:29.863Z,20.07
2018-03-18T06:07:01.284Z,19.02
2018-03-18T06:09:39.897Z,19.57
2018-03-18T06:12:11.685Z,20.07
2018-03-18T06:14:41.705Z,19.83
2018-03-18T06:17:17.762Z,22.07
2018-03-18T06:19:50.204Z,20.90
2018-03-18T06:22:21.171Z,19.90
2018-03-18T06:24:57.152Z,21.30
2018-03-18T06:27:31.665Z,19.87
2018-03-18T06:30:04.643Z,22.13
2018-03-18T06:32:37.369Z,19.83
2018-03-18T06:35:07.492Z,21.57
2018-03-18T06:37:38.101Z,22.47
2018-03-18T06:40:09.145Z,21.93
2018-03-18T06:42:42.144Z,22.80
2018-03-18T06:45:11.983Z,20.67
2018-03-18T06:47:44.674Z,20.97
2018-03-18T06:50:14.712Z,25.17
2018-03-18T06:52:46.397Z,22.50
2018-03-18T06:55:37.434Z,21.87
2018-03-18T06:58:08.748Z,22.17
2018-03-18T07:00:38.798Z,17.83
2018-03-18T07:03:11.830Z,23.47
2018-03-18T07:05:43.145Z,24.12
2018-03-18T07:08:12.799Z,20.73
2018-03-18T07:10:45.315Z,23.10
2018-03-18T07:13:16.889Z,21.80
2018-03-18T07:15:49.789Z,21.93
2018-03-18T07:18:20.305Z,22.83
2018-03-18T07:20:50.344Z,23.20
2018-03-18T07:23:21.967Z,20.60
2018-03-18T07:25:54.524Z,32.13
2018-03-18T07:28:26.489Z,29.20
2018-03-18T07:30:57.574Z,25.97
2018-03-18T07:40:12.428Z,40.10
2018-03-18T07:42:41.929Z,21.47
2018-03-18T07:45:12.032Z,20.83
2018-03-18T07:47:42.322Z,21.90
2018-03-18T07:50:11.615Z,25.77
2018-03-18T07:52:41.625Z,20.87
2018-03-18T07:55:11.097Z,21.98
2018-03-18T07:57:41.471Z,22.47
2018-03-18T08:00:12.591Z,22.55
2018-03-18T08:02:41.940Z,21.97
2018-03-18T08:05:11.688Z,26.50
2018-03-18T08:07:43.714Z,20.33
2018-03-18T08:10:13.506Z,24.60
2018-03-18T08:12:44.479Z,34.13
2018-03-18T08:15:14.011Z,23.30
2018-03-18T08:17:44.961Z,23.33
2018-03-18T08:20:16.542Z,21.27
2018-03-18T08:22:47.332Z,24.33
2018-03-18T08:25:20.706Z,26.80
2018-03-18T08:27:52.303Z,19.07
2018-03-18T08:30:23.723Z,21.30
2018-03-18T08:32:56.267Z,29.40
2018-03-18T08:35:28.718Z,20.97
2018-03-18T08:38:00.665Z,25.67
2018-03-18T08:40:33.122Z,20.65
2018-03-18T08:43:07.699Z,30.60
2018-03-18T08:45:40.989Z,21.00
2018-03-18T08:48:12.157Z,23.40
2018-03-18T08:50:43.406Z,20.00
2018-03-18T08:53:13.374Z,22.50
2018-03-18T08:55:46.290Z,19.13
2018-03-18T08:58:18.095Z,23.67
2018-03-18T09:00:50.316Z,20.73
2018-03-18T09:03:26.292Z,18.70
2018-03-18T09:05:56.807Z,22.30
2018-03-18T09:08:38.555Z,15.20
2018-03-18T09:11:09.054Z,18.42
2018-03-18T09:13:39.710Z,18.00
2018-03-18T09:16:09.921Z,19.45
2018-03-18T09:18:39.219Z,17.77
2018-03-18T09:21:08.547Z,18.07
2018-03-18T09:23:37.889Z,21.35
2018-03-18T09:26:07.222Z,21.05
2018-03-18T09:28:36.511Z,19.20
2018-03-18T09:31:06.019Z,22.07
2018-03-18T09:33:35.300Z,22.27
2018-03-18T09:36:04.679Z,20.30
2018-03-18T09:38:34.235Z,18.20
2018-03-18T09:41:33.880Z,18.20
2018-03-18T09:44:04.149Z,18.30
2018-03-18T09:46:33.465Z,18.50
2018-03-18T09:49:03.527Z,22.00
2018-03-18T09:51:33.678Z,18.08
2018-03-18T09:54:04.316Z,18.85
2018-03-18T09:56:33.973Z,19.77
2018-03-18T09:59:04.315Z,22.62
2018-03-18T10:01:40.072Z,21.95
2018-03-18T10:04:10.508Z,23.25
2018-03-18T10:06:42.675Z,21.23
2018-03-18T10:09:17.223Z,22.95
2018-03-18T10:11:47.064Z,19.87
2018-03-18T10:14:16.385Z,20.13
2018-03-18T10:16:45.872Z,18.77
2018-03-18T10:19:15.287Z,18.93
2018-03-18T10:21:44.583Z,19.70
2018-03-18T10:24:13.871Z,21.33
2018-03-18T10:26:43.331Z,19.83
2018-03-18T10:29:12.691Z,20.17
2018-03-18T10:31:42.007Z,20.42
2018-03-18T10:34:12.885Z,20.55
2018-03-18T10:36:42.191Z,24.90
2018-03-18T10:39:18.162Z,18.43
2018-03-18T10:41:53.354Z,21.60
2018-03-18T10:44:23.147Z,18.70
2018-03-18T10:46:52.726Z,20.70
2018-03-18T10:49:24.024Z,19.83
2018-03-18T10:51:55.010Z,21.00
2018-03-18T10:54:26.435Z,20.50
2018-03-18T10:56:56.076Z,20.17
2018-03-18T10:59:25.386Z,20.10
2018-03-18T11:05:11.124Z,23.40
2018-03-18T11:07:41.196Z,20.53
2018-03-18T11:10:10.674Z,20.00
2018-03-18T11:12:40.008Z,23.47
2018-03-18T11:15:10.057Z,23.10
2018-03-18T11:17:41.451Z,23.05
2018-03-18T11:20:12.663Z,21.17
2018-03-18T11:22:45.736Z,24.30
2018-03-18T11:25:15.404Z,25.03
2018-03-18T11:27:46.744Z,24.83
2018-03-18T11:30:19.386Z,21.43
2018-03-18T11:32:49.523Z,28.03
2018-03-18T11:35:21.942Z,26.20
2018-03-18T11:37:56.277Z,28.17
2018-03-18T11:40:31.068Z,25.33
2018-03-18T11:43:01.656Z,27.83
2018-03-18T11:45:31.226Z,23.67
2018-03-18T11:48:05.985Z,21.56
2018-03-18T11:50:36.066Z,22.43
2018-03-18T11:53:05.785Z,24.60
2018-03-18T11:55:35.649Z,22.87
2018-03-18T11:58:06.507Z,21.93
2018-03-18T12:00:36.924Z,23.73
2018-03-18T12:03:07.346Z,23.33
2018-03-18T12:05:39.413Z,22.93
2018-03-18T12:08:09.183Z,23.33
2018-03-18T12:10:39.622Z,25.63
2018-03-18T12:13:08.986Z,26.10
2018-03-18T12:15:38.258Z,24.77
2018-03-18T12:18:09.397Z,24.90
2018-03-18T12:20:39.766Z,23.73
2018-03-18T12:23:09.198Z,25.83
2018-03-18T12:25:39.200Z,22.60
2018-03-18T12:28:08.943Z,32.17
2018-03-18T12:30:38.295Z,28.50
2018-03-18T12:33:08.078Z,26.57
2018-03-18T12:35:37.477Z,28.20
2018-03-18T12:38:07.278Z,27.45
2018-03-18T12:40:36.663Z,43.57
2018-03-18T12:43:31.228Z,29.43
2018-03-18T12:46:01.878Z,25.75
2018-03-18T12:48:31.663Z,27.40
2018-03-18T12:51:02.125Z,25.27
2018-03-18T12:53:31.415Z,28.33
2018-03-18T12:56:01.371Z,29.02
2018-03-18T12:58:32.194Z,24.73
2018-03-18T13:01:02.480Z,29.63
2018-03-18T13:03:31.781Z,25.27
2018-03-18T13:06:01.857Z,26.25
2018-03-18T13:08:31.855Z,24.42
2018-03-18T13:11:01.904Z,23.23
2018-03-18T13:13:32.676Z,22.13
2018-03-18T13:16:03.314Z,24.98
2018-03-18T13:18:32.610Z,25.03
2018-03-18T13:21:01.926Z,24.87
2018-03-18T13:23:31.737Z,25.02
2018-03-18T13:26:06.371Z,27.73
2018-03-18T13:28:36.948Z,22.50
2018-03-18T13:31:09.991Z,25.73
2018-03-18T13:33:41.704Z,23.60
2018-03-18T13:36:13.345Z,22.67
2018-03-18T13:38:46.039Z,23.53
2018-03-18T13:41:18.376Z,25.60
2018-03-18T13:43:51.388Z,23.17
2018-03-18T13:46:25.241Z,24.55
2018-03-18T13:48:57.998Z,23.50
2018-03-18T13:51:29.821Z,23.33
2018-03-18T13:54:04.094Z,24.07
2018-03-18T13:56:38.079Z,24.07
2018-03-18T13:59:08.008Z,26.17
2018-03-18T14:01:41.057Z,23.12
2018-03-18T14:04:20.293Z,23.67
2018-03-18T14:06:53.149Z,25.20
2018-03-18T14:09:23.703Z,29.13
2018-03-18T14:11:56.017Z,26.23
2018-03-18T14:14:30.195Z,29.27
2018-03-18T14:17:38.465Z,25.08
2018-03-18T14:20:13.294Z,25.03
2018-03-18T14:22:43.688Z,23.67
2018-03-18T14:25:17.091Z,28.77
2018-03-18T14:27:49.017Z,32.70
2018-03-18T14:30:20.284Z,24.30
2018-03-18T14:32:59.782Z,32.57
2018-03-18T14:35:29.935Z,31.50
2018-03-18T14:38:08.756Z,29.43
2018-03-18T14:40:38.794Z,26.90
2018-03-18T14:43:11.731Z,24.37
2018-03-18T14:45:44.816Z,27.07
2018-03-18T14:48:14.692Z,29.50
2018-03-18T14:50:51.395Z,24.97
2018-03-18T14:53:21.734Z,24.40
2018-03-18T14:55:53.922Z,28.67
2018-03-18T14:58:24.621Z,24.13
2018-03-18T15:00:59.706Z,27.35
2018-03-18T15:03:31.309Z,26.80
2018-03-18T15:06:03.995Z,30.30
2018-03-18T15:08:34.741Z,31.60
2018-03-18T15:11:05.780Z,26.52
2018-03-18T15:13:36.774Z,28.20
2018-03-18T15:16:09.246Z,24.87
2018-03-18T15:18:43.098Z,25.53
2018-03-18T15:21:17.232Z,28.37
2018-03-18T15:23:51.806Z,27.65
2018-03-18T15:29:06.468Z,27.00
2018-03-18T15:31:39.608Z,30.62
2018-03-18T15:34:10.428Z,34.23
2018-03-18T15:36:44.498Z,33.87
2018-03-18T15:39:15.913Z,25.40
2018-03-18T15:41:50.964Z,34.17
2018-03-18T15:44:25.622Z,26.20
2018-03-18T15:46:56.355Z,24.13
2018-03-18T15:49:27.647Z,27.13
2018-03-18T15:52:00.599Z,26.23
2018-03-18T15:54:35.778Z,30.60
2018-03-18T15:57:05.831Z,27.03
2018-03-18T15:59:39.321Z,33.70
2018-03-18T16:02:11.417Z,33.17
2018-03-18T16:04:41.643Z,30.73
2018-03-18T16:07:12.728Z,34.30
2018-03-18T16:09:42.867Z,32.40
2018-03-18T16:12:16.365Z,32.13
2018-03-18T16:14:48.103Z,30.40
2018-03-18T16:17:20.232Z,29.13
2018-03-18T16:19:53.414Z,30.33
2018-03-18T16:22:25.121Z,33.53
2018-03-18T16:24:55.093Z,29.57
2018-03-18T16:27:27.713Z,31.30
2018-03-18T16:30:15.539Z,29.60
2018-03-18T16:32:47.582Z,32.07
2018-03-18T16:35:20.386Z,27.80
2018-03-18T16:37:51.933Z,29.83
2018-03-18T16:40:24.865Z,28.97
2018-03-18T16:42:55.012Z,26.05
2018-03-18T16:45:25.472Z,30.77
2018-03-18T16:47:58.291Z,27.48
2018-03-18T16:50:34.180Z,30.80
2018-03-18T16:53:05.398Z,29.57
2018-03-18T16:55:36.683Z,30.73
2018-03-18T16:58:09.559Z,27.47
2018-03-18T17:00:41.447Z,29.27
2018-03-18T17:03:16.549Z,28.60
2018-03-18T17:05:48.327Z,28.30
2018-03-18T17:08:19.180Z,29.70
2018-03-18T17:10:49.028Z,29.50
2018-03-18T17:13:20.233Z,28.27
2018-03-18T17:16:00.175Z,30.37
2018-03-18T17:18:30.752Z,32.43
2018-03-18T17:21:01.921Z,33.43
2018-03-18T17:23:32.967Z,35.75
2018-03-18T17:26:04.120Z,26.77
2018-03-18T17:28:39.654Z,35.33
2018-03-18T17:31:12.427Z,35.70
2018-03-18T17:34:01.421Z,33.10
2018-03-18T17:36:34.443Z,27.20
2018-03-18T17:39:07.920Z,36.13
2018-03-18T17:41:41.548Z,32.63
2018-03-18T17:47:32.708Z,33.83
2018-03-18T17:50:24.861Z,32.90
2018-03-18T17:53:14.730Z,39.27
2018-03-18T17:55:48.934Z,37.87
2018-03-18T17:58:19.422Z,34.73
2018-03-18T18:00:53.173Z,36.30
2018-03-18T18:03:24.274Z,37.47
2018-03-18T18:05:54.264Z,39.30
2018-03-18T18:08:31.193Z,39.00
2018-03-18T18:11:03.451Z,35.40
2018-03-18T18:13:36.779Z,37.97
2018-03-18T18:16:10.873Z,36.17
2018-03-18T18:18:44.370Z,35.13
2018-03-18T18:21:15.724Z,35.87
2018-03-18T18:23:47.915Z,35.30
2018-03-18T18:26:27.431Z,37.47
2018-03-18T18:29:04.475Z,36.57
2018-03-18T18:31:36.411Z,33.72
2018-03-18T18:34:11.135Z,39.27
2018-03-18T18:36:40.832Z,36.67
2018-03-18T18:39:11.751Z,39.20
2018-03-18T18:41:43.240Z,34.90
2018-03-18T18:44:18.240Z,46.05
2018-03-18T18:46:51.410Z,40.07
2018-03-18T18:49:22.109Z,36.07
2018-03-18T18:51:54.093Z,32.83
2018-03-18T18:54:33.869Z,36.63
2018-03-18T18:57:06.959Z,34.72
2018-03-18T18:59:37.026Z,38.53
2018-03-18T19:02:08.064Z,31.47
2018-03-18T19:04:39.168Z,31.50
2018-03-18T19:07:10.938Z,35.07
2018-03-18T19:09:44.766Z,32.73
2018-03-18T19:12:15.236Z,32.97
2018-03-18T19:14:45.176Z,36.73
2018-03-18T19:17:14.824Z,33.13
2018-03-18T19:19:44.700Z,31.67
2018-03-18T19:22:17.689Z,33.37
2018-03-18T19:24:49.891Z,31.53
2018-03-18T19:27:19.954Z,34.33
2018-03-18T19:29:57.906Z,31.47
2018-03-18T19:32:30.596Z,32.33
2018-03-18T19:35:01.525Z,28.93
2018-03-18T19:37:31.483Z,30.83
2018-03-18T19:40:06.359Z,32.43
2018-03-18T19:42:36.370Z,34.83
2018-03-18T19:45:08.467Z,31.97
2018-03-18T19:47:42.441Z,31.20
2018-03-18T19:50:15.924Z,32.60
2018-03-18T19:52:47.913Z,27.77
2018-03-18T19:55:22.032Z,29.12
2018-03-18T19:57:56.540Z,27.93
2018-03-18T20:00:29.341Z,28.00
2018-03-18T20:02:59.808Z,30.27
2018-03-18T20:05:30.461Z,27.57
2018-03-18T20:08:00.013Z,30.90
2018-03-18T20:10:30.858Z,28.90
2018-03-18T20:13:04.301Z,34.42
2018-03-18T20:15:35.147Z,29.30
2018-03-18T20:18:11.338Z,30.10
2018-03-18T20:20:45.223Z,33.87
2018-03-18T20:23:16.501Z,32.07
2018-03-18T20:25:49.349Z,28.93
2018-03-18T20:28:19.030Z,32.40
2018-03-18T20:30:54.877Z,31.47
2018-03-18T20:33:28.068Z,31.07
2018-03-18T20:35:58.444Z,28.63
2018-03-18T20:38:32.114Z,33.03
2018-03-18T20:41:14.232Z,35.90
2018-03-18T20:43:46.690Z,37.43
2018-03-18T20:46:22.540Z,38.60
2018-03-18T20:48:59.653Z,39.30
2018-03-18T20:51:31.194Z,35.85
2018-03-18T20:54:01.769Z,40.83
2018-03-18T20:56:32.380Z,33.53
2018-03-18T20:59:05.827Z,34.60
2018-03-18T21:01:39.975Z,28.75
2018-03-18T21:04:11.582Z,27.93
2018-03-18T21:06:47.103Z,34.70
2018-03-18T21:09:17.064Z,38.57
2018-03-18T21:11:54.735Z,35.20
2018-03-18T21:14:31.534Z,40.73
2018-03-18T21:17:03.047Z,33.73
2018-03-18T21:19:35.461Z,35.27
2018-03-18T21:22:09.335Z,33.23
2018-03-18T21:24:42.917Z,33.10
2018-03-18T21:27:14.086Z,34.83
2018-03-18T21:32:53.419Z,36.13
2018-03-18T21:35:25.107Z,34.53
2018-03-18T21:37:56.817Z,38.40
2018-03-18T21:40:30.447Z,33.03
2018-03-18T21:43:01.079Z,33.15
2018-03-18T21:45:32.405Z,30.12
2018-03-18T21:48:03.633Z,31.27
2018-03-18T21:50:38.302Z,32.67
2018-03-18T21:53:08.927Z,29.27
2018-03-18T21:55:39.777Z,27.25
2018-03-18T21:58:12.545Z,28.67
2018-03-18T22:00:45.577Z,33.03
2018-03-18T22:03:17.643Z,31.00
2018-03-18T22:05:52.420Z,31.85
2018-03-18T22:08:25.080Z,37.22
2018-03-18T22:10:55.067Z,32.50
2018-03-18T22:13:27.800Z,35.50
2018-03-18T22:18:39.443Z,29.20
2018-03-18T22:21:12.327Z,32.93
2018-03-18T22:23:48.047Z,30.40
2018-03-18T22:26:18.831Z,30.10
2018-03-18T22:28:51.314Z,28.83
2018-03-18T22:31:28.291Z,26.03
2018-03-18T22:34:00.069Z,30.97
2018-03-18T22:36:32.322Z,29.27
2018-03-18T22:39:04.211Z,29.30
2018-03-18T22:41:37.296Z,27.17
2018-03-18T22:44:10.570Z,29.77
2018-03-18T22:46:40.647Z,29.97
2018-03-18T22:49:15.630Z,35.53
2018-03-18T22:51:48.590Z,28.97
2018-03-18T22:54:19.833Z,35.03
2018-03-18T22:56:55.156Z,29.70
2018-03-18T22:59:30.069Z,28.83
2018-03-18T23:02:01.931Z,29.07
2018-03-18T23:04:32.944Z,27.37
2018-03-18T23:07:02.946Z,28.03
2018-03-18T23:09:35.394Z,27.77
2018-03-18T23:12:11.081Z,29.30
2018-03-18T23:14:41.945Z,28.67
2018-03-18T23:17:11.554Z,34.20
2018-03-18T23:19:43.316Z,30.02
2018-03-18T23:22:13.579Z,28.37
2018-03-18T23:24:45.566Z,32.90
2018-03-18T23:27:21.201Z,27.60
2018-03-18T23:29:53.530Z,28.30
2018-03-18T23:32:24.667Z,30.43
2018-03-18T23:34:57.901Z,27.93
2018-03-18T23:37:32.848Z,31.03
2018-03-18T23:40:07.321Z,36.23
2018-03-18T23:42:38.853Z,31.80
2018-03-18T23:45:26.247Z,32.73
2018-03-18T23:47:57.198Z,30.37
2018-03-18T23:50:28.059Z,42.90
2018-03-18T23:53:00.763Z,31.43
2018-03-18T23:55:31.240Z,31.03
2018-03-18T23:58:01.037Z,33.30
